Time;durP1;ratioP1;P1;durP2;ratioP2;P2;SDS_P1;SDS_P2;PMS_P1;PMS_P2;Temp;Humidity;BMP_temperature;BMP_pressure;BME280_temperature;BME280_humidity;BME280_pressure;Samples;Min_cycle;Max_cycle;Signal;HPM_P1;HPM_P2
2023/07/24 00:00:13;;;;;;;7.07;4.10;;;;;;;;;;4933908;28;1134540;-69
2023/07/24 00:02:38;;;;;;;7.72;4.10;;;;;;;;;;4974098;28;20522;-69
2023/07/24 00:05:04;;;;;;;9.07;3.78;;;;;;;;;;4974167;28;20118;-69
2023/07/24 00:07:29;;;;;;;12.68;4.05;;;;;;;;;;4973792;28;20066;-69
2023/07/24 00:09:55;;;;;;;7.20;3.85;;;;;;;;;;4973941;28;20075;-69
2023/07/24 00:12:20;;;;;;;7.43;3.72;;;;;;;;;;4974168;28;20031;-69
2023/07/24 00:14:46;;;;;;;9.88;4.15;;;;;;;;;;4972725;28;20042;-69
2023/07/24 00:17:11;;;;;;;9.73;3.92;;;;;;;;;;4973868;28;20074;-69
2023/07/24 00:19:36;;;;;;;7.72;3.67;;;;;;;;;;4973918;28;20117;-69
2023/07/24 00:22:02;;;;;;;8.50;3.75;;;;;;;;;;4974029;28;20138;-69
2023/07/24 00:24:27;;;;;;;15.75;3.92;;;;;;;;;;4973573;28;20042;-69
2023/07/24 00:26:52;;;;;;;5.53;4.00;;;;;;;;;;4974100;28;20426;-68
2023/07/24 00:29:18;;;;;;;7.28;4.07;;;;;;;;;;4973857;28;20404;-69
2023/07/24 00:31:43;;;;;;;6.90;3.83;;;;;;;;;;4973519;28;20043;-69
2023/07/24 00:34:08;;;;;;;7.78;4.25;;;;;;;;;;4973871;28;20034;-69
2023/07/24 00:36:34;;;;;;;9.20;4.43;;;;;;;;;;4973943;28;20527;-69
2023/07/24 00:38:59;;;;;;;8.85;4.10;;;;;;;;;;4973742;28;20441;-69
2023/07/24 00:41:24;;;;;;;14.23;4.20;;;;;;;;;;4973586;28;20138;-68
2023/07/24 00:43:50;;;;;;;8.85;4.07;;;;;;;;;;4973803;28;20035;-69
2023/07/24 00:46:15;;;;;;;7.20;4.18;;;;;;;;;;4973804;28;20046;-69
2023/07/24 00:48:40;;;;;;;8.07;4.70;;;;;;;;;;4973662;28;20035;-69
2023/07/24 00:51:06;;;;;;;8.88;4.20;;;;;;;;;;4973498;28;20113;-69
2023/07/24 00:53:31;;;;;;;6.13;4.05;;;;;;;;;;4956448;28;20126;-69
2023/07/24 00:55:56;;;;;;;11.18;4.47;;;;;;;;;;4967016;28;20465;-68
2023/07/24 00:58:22;;;;;;;13.07;4.28;;;;;;;;;;4973876;28;20046;-68
2023/07/24 01:00:47;;;;;;;6.95;4.38;;;;;;;;;;4972879;28;20169;-68
2023/07/24 01:03:13;;;;;;;13.98;3.85;;;;;;;;;;4977028;28;20031;-69
2023/07/24 01:05:38;;;;;;;7.45;3.97;;;;;;;;;;4976973;28;20093;-69
2023/07/24 01:08:04;;;;;;;6.88;4.45;;;;;;;;;;4977271;28;20427;-69
2023/07/24 01:10:29;;;;;;;7.68;4.03;;;;;;;;;;4976424;28;20039;-68
2023/07/24 01:13:00;;;;;;;6.70;3.72;;;;;;;;;;4976656;28;20034;-68
2023/07/24 01:15:36;;;;;;;9.20;4.38;;;;;;;;;;4976490;28;20043;-68
2023/07/24 01:18:08;;;;;;;10.73;4.03;;;;;;;;;;4975761;28;20039;-68
2023/07/24 01:20:36;;;;;;;8.50;4.15;;;;;;;;;;4975108;28;20097;-68
2023/07/24 01:23:11;;;;;;;8.07;4.70;;;;;;;;;;4971200;28;20090;-69
2023/07/24 01:25:58;;;;;;;13.13;4.90;;;;;;;;;;4975145;28;20069;-69
2023/07/24 01:28:27;;;;;;;11.45;4.70;;;;;;;;;;4975481;28;20114;-68
2023/07/24 01:30:53;;;;;;;6.55;4.28;;;;;;;;;;4975109;28;20391;-69
2023/07/24 01:33:19;;;;;;;9.48;4.47;;;;;;;;;;4975245;28;20033;-68
2023/07/24 01:35:44;;;;;;;10.00;4.35;;;;;;;;;;4976056;28;20066;-69
2023/07/24 01:38:12;;;;;;;8.55;4.18;;;;;;;;;;4976511;28;20059;-69
2023/07/24 01:40:39;;;;;;;6.22;4.10;;;;;;;;;;4974583;28;20558;-68
2023/07/24 01:43:04;;;;;;;8.65;4.57;;;;;;;;;;5007418;28;20475;-69
2023/07/24 01:45:30;;;;;;;6.55;4.53;;;;;;;;;;4976135;28;20100;-69
2023/07/24 01:47:55;;;;;;;7.35;4.65;;;;;;;;;;4975997;28;20035;-69
2023/07/24 01:50:21;;;;;;;10.85;4.22;;;;;;;;;;4975773;28;20475;-69
2023/07/24 01:52:46;;;;;;;9.27;4.45;;;;;;;;;;4976460;28;20407;-68
2023/07/24 01:55:11;;;;;;;7.35;4.15;;;;;;;;;;4975779;28;20035;-68
2023/07/24 01:57:37;;;;;;;14.05;4.13;;;;;;;;;;4976307;28;20089;-69
2023/07/24 02:00:02;;;;;;;6.43;4.35;;;;;;;;;;4975646;28;20051;-68
2023/07/24 02:02:27;;;;;;;8.80;4.90;;;;;;;;;;4975905;28;20117;-69
2023/07/24 02:04:53;;;;;;;6.40;4.38;;;;;;;;;;4975737;28;20123;-69
2023/07/24 02:07:18;;;;;;;11.23;4.57;;;;;;;;;;4975757;28;20121;-69
2023/07/24 02:09:43;;;;;;;12.25;4.65;;;;;;;;;;4975772;28;20041;-69
2023/07/24 02:12:09;;;;;;;6.85;4.75;;;;;;;;;;4974920;28;20103;-69
2023/07/24 02:14:34;;;;;;;7.40;4.40;;;;;;;;;;4975723;28;20047;-69
2023/07/24 02:16:59;;;;;;;8.93;4.28;;;;;;;;;;4976170;28;20038;-68
2023/07/24 02:19:25;;;;;;;12.18;4.70;;;;;;;;;;4974213;28;20041;-68
2023/07/24 02:21:50;;;;;;;8.57;4.53;;;;;;;;;;4975498;28;20501;-69
2023/07/24 02:24:15;;;;;;;13.65;4.85;;;;;;;;;;4974181;28;20491;-69
2023/07/24 02:26:41;;;;;;;7.65;4.32;;;;;;;;;;4975620;28;20099;-69
2023/07/24 02:29:06;;;;;;;7.18;4.57;;;;;;;;;;4990500;28;20093;-69
2023/07/24 02:31:31;;;;;;;6.75;4.38;;;;;;;;;;4974862;28;20467;-69
2023/07/24 02:33:57;;;;;;;7.20;4.60;;;;;;;;;;4975532;28;20034;-69
2023/07/24 02:36:22;;;;;;;10.20;4.40;;;;;;;;;;4975309;28;20043;-69
2023/07/24 02:38:47;;;;;;;13.65;4.70;;;;;;;;;;4975035;28;20113;-69
2023/07/24 02:41:13;;;;;;;6.18;4.15;;;;;;;;;;4974984;28;20487;-69
2023/07/24 02:43:38;;;;;;;8.30;4.45;;;;;;;;;;4975441;28;20039;-68
2023/07/24 02:46:03;;;;;;;7.82;4.18;;;;;;;;;;4974894;28;20456;-68
2023/07/24 02:48:29;;;;;;;13.38;4.35;;;;;;;;;;4975255;28;20050;-69
2023/07/24 02:50:54;;;;;;;10.00;4.82;;;;;;;;;;4975024;28;20471;-68
2023/07/24 02:53:20;;;;;;;6.63;4.50;;;;;;;;;;4975129;28;20034;-69
2023/07/24 02:55:45;;;;;;;6.47;4.10;;;;;;;;;;4973720;28;20034;-69
2023/07/24 02:58:12;;;;;;;8.70;4.60;;;;;;;;;;4974915;28;20027;-68
2023/07/24 03:00:38;;;;;;;13.40;4.90;;;;;;;;;;4973132;28;20517;-69
2023/07/24 03:03:03;;;;;;;7.30;4.43;;;;;;;;;;4974816;28;20031;-68
2023/07/24 03:05:29;;;;;;;7.40;4.40;;;;;;;;;;4974577;28;20054;-68
2023/07/24 03:07:54;;;;;;;14.27;4.88;;;;;;;;;;4974952;28;20042;-68
2023/07/24 03:10:19;;;;;;;7.68;4.50;;;;;;;;;;4973396;28;20090;-69
2023/07/24 03:12:45;;;;;;;7.25;4.32;;;;;;;;;;4974727;28;20547;-69
2023/07/24 03:15:10;;;;;;;8.40;4.72;;;;;;;;;;4972954;28;20035;-68
2023/07/24 03:17:35;;;;;;;11.70;4.45;;;;;;;;;;4974893;28;20039;-69
2023/07/24 03:20:17;;;;;;;12.23;4.30;;;;;;;;;;4974261;28;20057;-69
2023/07/24 03:22:43;;;;;;;9.57;4.38;;;;;;;;;;4973514;28;20427;-68
2023/07/24 03:25:09;;;;;;;11.13;4.25;;;;;;;;;;4973979;28;20368;-69
2023/07/24 03:27:34;;;;;;;8.25;4.35;;;;;;;;;;4974534;28;20046;-69
2023/07/24 03:30:00;;;;;;;11.50;5.10;;;;;;;;;;4974186;28;20098;-69
2023/07/24 03:32:25;;;;;;;8.82;4.38;;;;;;;;;;5005848;28;20039;-69
2023/07/24 03:34:51;;;;;;;10.02;4.70;;;;;;;;;;4974406;28;20486;-69
2023/07/24 03:37:16;;;;;;;7.57;4.65;;;;;;;;;;4974343;28;20387;-69
2023/07/24 03:39:41;;;;;;;7.18;4.63;;;;;;;;;;4974272;28;20045;-68
2023/07/24 03:42:09;;;;;;;6.45;4.53;;;;;;;;;;4974376;28;20073;-68
2023/07/24 03:44:35;;;;;;;9.43;4.63;;;;;;;;;;4973894;28;20515;-69
2023/07/24 03:47:00;;;;;;;6.00;4.07;;;;;;;;;;4974085;28;20117;-68
2023/07/24 03:49:25;;;;;;;7.13;4.03;;;;;;;;;;4974126;28;20061;-69
2023/07/24 03:51:50;;;;;;;11.55;4.40;;;;;;;;;;4974268;28;20035;-69
2023/07/24 03:54:16;;;;;;;6.95;4.18;;;;;;;;;;4974154;28;20038;-68
2023/07/24 03:56:41;;;;;;;8.73;4.07;;;;;;;;;;4974204;28;20031;-69
2023/07/24 03:59:06;;;;;;;7.07;4.40;;;;;;;;;;4973915;28;20030;-69
2023/07/24 04:01:32;;;;;;;6.63;4.22;;;;;;;;;;4974068;28;20047;-69
2023/07/24 04:03:58;;;;;;;5.70;3.97;;;;;;;;;;4973004;28;20046;-68
2023/07/24 04:06:24;;;;;;;9.65;4.10;;;;;;;;;;4974268;28;20125;-69
2023/07/24 04:08:49;;;;;;;8.05;3.95;;;;;;;;;;4974226;28;20114;-69
2023/07/24 04:11:14;;;;;;;11.00;3.88;;;;;;;;;;4974447;28;20117;-69
2023/07/24 04:13:40;;;;;;;6.68;3.70;;;;;;;;;;4974048;28;20121;-69
2023/07/24 04:16:05;;;;;;;6.10;3.72;;;;;;;;;;4973921;28;20049;-69
2023/07/24 04:18:30;;;;;;;5.65;3.80;;;;;;;;;;4974019;28;20042;-69
2023/07/24 04:20:56;;;;;;;5.35;3.10;;;;;;;;;;4973397;28;20538;-68
2023/07/24 04:23:22;;;;;;;7.15;3.67;;;;;;;;;;4973952;28;20039;-69
2023/07/24 04:25:49;;;;;;;7.07;3.50;;;;;;;;;;4972736;28;20055;-68
2023/07/24 04:28:15;;;;;;;9.23;3.78;;;;;;;;;;4974218;28;20043;-68
2023/07/24 04:30:40;;;;;;;7.70;2.90;;;;;;;;;;4973248;28;20105;-69
2023/07/24 04:33:05;;;;;;;7.28;2.55;;;;;;;;;;4973715;28;20035;-69
2023/07/24 04:35:31;;;;;;;2.08;1.20;;;;;;;;;;4974386;28;20121;-69
2023/07/24 04:37:57;;;;;;;1.98;1.00;;;;;;;;;;4977442;28;20078;-68
2023/07/24 04:40:22;;;;;;;4.70;1.58;;;;;;;;;;4976836;28;20031;-69
2023/07/24 04:42:48;;;;;;;2.33;1.10;;;;;;;;;;4975614;28;20118;-69
2023/07/24 04:45:13;;;;;;;2.53;1.00;;;;;;;;;;4977386;28;20458;-68
2023/07/24 04:47:38;;;;;;;2.00;1.17;;;;;;;;;;4977492;28;20391;-68
2023/07/24 04:50:04;;;;;;;1.48;0.80;;;;;;;;;;4977287;28;20038;-69
2023/07/24 04:52:30;;;;;;;2.05;0.70;;;;;;;;;;4977211;28;20487;-69
2023/07/24 04:54:55;;;;;;;0.95;0.50;;;;;;;;;;4976863;28;20356;-68
2023/07/24 04:57:20;;;;;;;1.58;0.70;;;;;;;;;;4976930;28;20482;-69
2023/07/24 04:59:46;;;;;;;0.85;0.60;;;;;;;;;;4973355;28;20046;-69
2023/07/24 05:02:11;;;;;;;2.47;0.45;;;;;;;;;;4976752;28;20035;-69
2023/07/24 05:04:37;;;;;;;0.75;0.50;;;;;;;;;;4976731;28;20074;-68
2023/07/24 05:07:02;;;;;;;0.45;0.30;;;;;;;;;;4977249;28;20043;-68
2023/07/24 05:09:28;;;;;;;2.33;0.47;;;;;;;;;;4976830;28;20472;-69
2023/07/24 05:11:53;;;;;;;0.73;0.40;;;;;;;;;;4977007;28;20122;-68
2023/07/24 05:14:18;;;;;;;0.70;0.50;;;;;;;;;;4976774;28;20125;-68
2023/07/24 05:16:43;;;;;;;1.42;0.40;;;;;;;;;;4976946;28;20043;-69
2023/07/24 05:19:09;;;;;;;3.92;0.98;;;;;;;;;;4976774;28;20030;-68
2023/07/24 05:21:34;;;;;;;1.23;0.30;;;;;;;;;;4976405;28;20394;-69
2023/07/24 05:23:59;;;;;;;1.17;0.47;;;;;;;;;;4976546;28;20094;-69
2023/07/24 05:26:25;;;;;;;0.45;0.35;;;;;;;;;;4976976;28;20387;-68
2023/07/24 05:28:52;;;;;;;1.48;0.45;;;;;;;;;;4976309;28;20475;-69
2023/07/24 05:31:18;;;;;;;0.30;0.30;;;;;;;;;;4976957;28;20187;-69
2023/07/24 05:33:43;;;;;;;0.75;0.20;;;;;;;;;;4975346;28;20467;-69
2023/07/24 05:36:08;;;;;;;0.28;0.20;;;;;;;;;;4976648;28;20047;-68
2023/07/24 05:38:34;;;;;;;0.17;0.10;;;;;;;;;;4976614;28;20035;-69
2023/07/24 05:41:01;;;;;;;0.32;0.17;;;;;;;;;;4975977;28;20046;-69
2023/07/24 05:43:27;;;;;;;4.60;0.32;;;;;;;;;;4976135;28;20034;-69
2023/07/24 05:45:53;;;;;;;0.10;0.10;;;;;;;;;;4975954;28;20511;-69
2023/07/24 05:48:18;;;;;;;0.10;0.10;;;;;;;;;;5007741;28;20105;-69
2023/07/24 05:50:44;;;;;;;0.20;0.20;;;;;;;;;;4976106;28;20122;-69
2023/07/24 05:53:09;;;;;;;1.35;0.20;;;;;;;;;;4976420;28;20037;-69
2023/07/24 05:55:34;;;;;;;0.20;0.20;;;;;;;;;;4974382;28;20502;-69
2023/07/24 05:58:00;;;;;;;0.20;0.20;;;;;;;;;;5007640;28;20041;-69
2023/07/24 06:00:25;;;;;;;0.20;0.20;;;;;;;;;;4975264;28;20050;-69
2023/07/24 06:02:50;;;;;;;0.20;0.20;;;;;;;;;;4975114;28;20481;-68
2023/07/24 06:05:16;;;;;;;0.10;0.10;;;;;;;;;;4975705;28;20037;-69
2023/07/24 06:07:41;;;;;;;1.48;0.45;;;;;;;;;;4976023;28;20121;-68
2023/07/24 06:10:07;;;;;;;0.25;0.25;;;;;;;;;;4975898;28;20047;-69
2023/07/24 06:12:32;;;;;;;0.22;0.20;;;;;;;;;;4976000;28;20047;-68
2023/07/24 06:14:57;;;;;;;1.88;0.25;;;;;;;;;;4975566;28;20038;-69
2023/07/24 06:17:23;;;;;;;0.45;0.30;;;;;;;;;;4975699;28;20031;-68
2023/07/24 06:19:48;;;;;;;0.35;0.20;;;;;;;;;;4975387;28;20053;-69
2023/07/24 06:22:13;;;;;;;0.38;0.20;;;;;;;;;;4974337;28;20089;-69
2023/07/24 06:24:39;;;;;;;0.38;0.20;;;;;;;;;;4974928;28;20052;-69
2023/07/24 06:27:06;;;;;;;0.10;0.10;;;;;;;;;;4975786;28;20035;-69
2023/07/24 06:29:32;;;;;;;0.10;0.10;;;;;;;;;;4972447;28;20034;-69
2023/07/24 06:31:57;;;;;;;0.20;0.20;;;;;;;;;;4975069;28;20368;-69
2023/07/24 06:34:22;;;;;;;0.98;0.20;;;;;;;;;;4975455;28;20080;-69
2023/07/24 06:36:48;;;;;;;0.20;0.20;;;;;;;;;;4975589;28;20167;-69
2023/07/24 06:39:13;;;;;;;0.20;0.20;;;;;;;;;;4975509;28;20031;-69
2023/07/24 06:41:38;;;;;;;0.20;0.20;;;;;;;;;;4975282;28;20368;-69
2023/07/24 06:44:04;;;;;;;0.20;0.20;;;;;;;;;;4974932;28;20037;-69
2023/07/24 06:46:29;;;;;;;0.10;0.10;;;;;;;;;;4973429;28;20042;-68
2023/07/24 06:48:54;;;;;;;0.17;0.17;;;;;;;;;;4969162;28;20046;-68
2023/07/24 06:51:20;;;;;;;1.35;0.20;;;;;;;;;;4975522;28;20086;-69
2023/07/24 06:53:45;;;;;;;0.20;0.20;;;;;;;;;;4975305;28;20030;-69
2023/07/24 06:56:10;;;;;;;0.13;0.10;;;;;;;;;;4974559;28;20042;-69
2023/07/24 06:58:36;;;;;;;0.40;0.20;;;;;;;;;;4973828;28;20103;-68
2023/07/24 07:01:05;;;;;;;1.35;0.40;;;;;;;;;;4975268;28;20061;-69
2023/07/24 07:03:31;;;;;;;0.20;0.20;;;;;;;;;;4969005;28;20041;-69
2023/07/24 07:05:59;;;;;;;0.25;0.25;;;;;;;;;;4974130;28;20035;-68
2023/07/24 07:08:24;;;;;;;2.17;0.40;;;;;;;;;;4974040;28;20035;-69
2023/07/24 07:10:55;;;;;;;1.45;0.20;;;;;;;;;;4973766;28;20239;-69
2023/07/24 07:13:21;;;;;;;0.57;0.30;;;;;;;;;;4973402;28;20037;-68
2023/07/24 07:15:46;;;;;;;1.15;0.30;;;;;;;;;;4974594;28;20497;-68
2023/07/24 07:18:11;;;;;;;0.10;0.10;;;;;;;;;;4961512;28;20483;-69
2023/07/24 07:20:37;;;;;;;1.50;0.40;;;;;;;;;;4973418;28;20555;-69
2023/07/24 07:23:02;;;;;;;0.60;0.30;;;;;;;;;;4974282;28;20165;-69
2023/07/24 07:25:27;;;;;;;1.45;0.32;;;;;;;;;;4974020;28;20487;-69
2023/07/24 07:27:53;;;;;;;0.30;0.30;;;;;;;;;;4974747;28;20387;-69
2023/07/24 07:30:18;;;;;;;1.35;0.30;;;;;;;;;;4973046;28;20459;-69
2023/07/24 07:32:43;;;;;;;0.50;0.38;;;;;;;;;;4972989;28;20038;-69
2023/07/24 07:35:09;;;;;;;0.20;0.20;;;;;;;;;;4973500;28;20415;-69
2023/07/24 07:37:34;;;;;;;0.75;0.40;;;;;;;;;;4974382;28;20185;-69
2023/07/24 07:39:59;;;;;;;2.45;0.32;;;;;;;;;;4971931;28;20047;-69
2023/07/24 07:42:24;;;;;;;0.40;0.30;;;;;;;;;;4973158;28;20351;-69
2023/07/24 07:44:50;;;;;;;0.30;0.30;;;;;;;;;;4973306;28;20505;-69
2023/07/24 07:47:15;;;;;;;0.20;0.20;;;;;;;;;;4973343;28;20045;-69
2023/07/24 07:49:41;;;;;;;0.30;0.30;;;;;;;;;;4974242;28;20031;-70
2023/07/24 07:52:07;;;;;;;0.30;0.30;;;;;;;;;;4972674;28;20030;-70
2023/07/24 07:54:32;;;;;;;0.47;0.38;;;;;;;;;;4973587;28;20530;-69
2023/07/24 07:56:57;;;;;;;0.70;0.28;;;;;;;;;;4973282;28;20035;-69
2023/07/24 07:59:23;;;;;;;0.20;0.20;;;;;;;;;;4973549;28;20035;-70
2023/07/24 08:01:48;;;;;;;3.10;0.40;;;;;;;;;;4949064;28;20094;-70
2023/07/24 08:04:14;;;;;;;0.40;0.38;;;;;;;;;;4968886;28;20041;-69
2023/07/24 08:06:39;;;;;;;0.60;0.40;;;;;;;;;;4968350;28;20030;-69
2023/07/24 08:09:04;;;;;;;0.30;0.30;;;;;;;;;;4969912;28;20042;-69
2023/07/24 08:11:30;;;;;;;1.13;0.45;;;;;;;;;;4973211;28;20037;-69
2023/07/24 08:13:55;;;;;;;0.57;0.30;;;;;;;;;;4973383;28;20038;-69
2023/07/24 08:16:20;;;;;;;0.38;0.30;;;;;;;;;;4972741;28;20049;-69
2023/07/24 08:18:49;;;;;;;0.68;0.40;;;;;;;;;;4973203;28;20113;-69
2023/07/24 08:21:15;;;;;;;1.17;0.40;;;;;;;;;;4972567;28;20435;-69
2023/07/24 08:23:41;;;;;;;0.45;0.40;;;;;;;;;;4974689;28;20126;-70
2023/07/24 08:26:07;;;;;;;0.65;0.40;;;;;;;;;;4974768;28;20030;-69
2023/07/24 08:28:34;;;;;;;0.63;0.50;;;;;;;;;;4971327;28;20110;-69
2023/07/24 08:31:01;;;;;;;0.98;0.40;;;;;;;;;;4974224;28;20039;-69
2023/07/24 08:33:27;;;;;;;0.85;0.45;;;;;;;;;;4974320;28;20410;-69
2023/07/24 08:36:06;;;;;;;0.50;0.38;;;;;;;;;;4965300;28;20045;-69
2023/07/24 08:38:31;;;;;;;0.40;0.40;;;;;;;;;;4974068;28;20057;-69
2023/07/24 08:41:01;;;;;;;0.80;0.50;;;;;;;;;;4967358;28;20935;-70
2023/07/24 08:43:28;;;;;;;0.63;0.50;;;;;;;;;;4967683;28;20410;-69
2023/07/24 08:45:54;;;;;;;0.43;0.30;;;;;;;;;;4974005;28;20043;-69
2023/07/24 08:48:20;;;;;;;1.30;0.60;;;;;;;;;;4974646;28;20035;-69
2023/07/24 08:50:47;;;;;;;1.80;0.47;;;;;;;;;;4972356;28;20047;-69
2023/07/24 08:53:13;;;;;;;1.25;0.80;;;;;;;;;;4972139;28;20053;-69
2023/07/24 08:55:39;;;;;;;0.80;0.43;;;;;;;;;;4972091;28;20030;-70
2023/07/24 08:58:06;;;;;;;1.00;0.40;;;;;;;;;;4972479;28;20058;-70
2023/07/24 09:00:32;;;;;;;1.30;0.60;;;;;;;;;;4972942;28;20077;-70
2023/07/24 09:02:57;;;;;;;1.40;0.70;;;;;;;;;;4974123;28;20034;-69
2023/07/24 09:05:23;;;;;;;1.08;0.60;;;;;;;;;;4972194;28;20050;-69
2023/07/24 09:07:48;;;;;;;1.48;0.63;;;;;;;;;;4973424;28;20034;-69
2023/07/24 09:10:14;;;;;;;0.90;0.52;;;;;;;;;;4966845;28;20034;-69
2023/07/24 09:12:41;;;;;;;1.50;0.80;;;;;;;;;;4974115;28;20521;-69
2023/07/24 09:15:07;;;;;;;3.88;0.70;;;;;;;;;;4975348;28;20134;-69
2023/07/24 09:17:32;;;;;;;1.27;0.77;;;;;;;;;;4972477;28;20110;-69
2023/07/24 09:19:58;;;;;;;4.18;0.75;;;;;;;;;;4972965;28;20090;-69
2023/07/24 09:22:26;;;;;;;2.85;0.80;;;;;;;;;;4964245;28;20038;-70
2023/07/24 09:24:53;;;;;;;0.80;0.50;;;;;;;;;;4966383;28;20121;-69
2023/07/24 09:27:19;;;;;;;1.25;0.70;;;;;;;;;;4966305;28;20070;-69
2023/07/24 09:29:45;;;;;;;1.05;0.80;;;;;;;;;;4972237;28;20407;-69
2023/07/24 09:32:21;;;;;;;1.65;0.60;;;;;;;;;;4971844;28;20109;-69
2023/07/24 09:34:47;;;;;;;2.33;0.73;;;;;;;;;;4969325;28;20121;-69
2023/07/24 09:37:26;;;;;;;0.95;0.60;;;;;;;;;;4971993;28;20550;-69
2023/07/24 09:39:51;;;;;;;2.45;0.80;;;;;;;;;;4972660;28;20039;-69
2023/07/24 09:42:16;;;;;;;0.80;0.60;;;;;;;;;;4972148;28;20033;-69
2023/07/24 09:44:42;;;;;;;1.15;0.70;;;;;;;;;;4972830;28;20077;-69
2023/07/24 09:47:08;;;;;;;1.10;0.68;;;;;;;;;;4969943;28;20038;-69
2023/07/24 09:49:33;;;;;;;1.55;0.70;;;;;;;;;;4971851;28;20513;-70
2023/07/24 09:52:00;;;;;;;1.33;0.70;;;;;;;;;;4970453;28;20058;-69
2023/07/24 09:54:33;;;;;;;2.38;0.90;;;;;;;;;;4969210;28;20081;-69
2023/07/24 09:56:59;;;;;;;2.13;0.95;;;;;;;;;;4971020;28;20042;-69
2023/07/24 09:59:26;;;;;;;2.08;0.70;;;;;;;;;;4968335;28;20113;-69
2023/07/24 10:01:52;;;;;;;3.85;0.90;;;;;;;;;;4970107;28;20055;-69
2023/07/24 10:04:18;;;;;;;1.63;0.85;;;;;;;;;;4970260;28;20038;-70
2023/07/24 10:06:44;;;;;;;1.23;0.77;;;;;;;;;;4970764;28;20518;-69
2023/07/24 10:09:10;;;;;;;1.67;0.82;;;;;;;;;;4964479;28;20039;-69
2023/07/24 10:11:35;;;;;;;1.50;0.70;;;;;;;;;;4969496;28;20121;-69
2023/07/24 10:14:01;;;;;;;1.75;1.00;;;;;;;;;;4971011;28;21061;-69
2023/07/24 10:16:26;;;;;;;1.33;0.80;;;;;;;;;;4970773;28;20459;-69
2023/07/24 10:18:52;;;;;;;1.88;0.77;;;;;;;;;;4971013;28;20042;-69
2023/07/24 10:21:17;;;;;;;1.67;0.70;;;;;;;;;;4968752;28;20038;-70
2023/07/24 10:23:46;;;;;;;3.28;0.90;;;;;;;;;;4970125;28;20042;-69
2023/07/24 10:26:15;;;;;;;1.30;0.80;;;;;;;;;;4971385;28;20023;-69
2023/07/24 10:28:41;;;;;;;1.95;0.80;;;;;;;;;;4971510;28;20039;-69
2023/07/24 10:31:11;;;;;;;1.67;0.80;;;;;;;;;;4970790;28;20118;-69
2023/07/24 10:33:44;;;;;;;2.60;0.90;;;;;;;;;;4971197;28;20081;-69
2023/07/24 10:36:10;;;;;;;1.23;0.70;;;;;;;;;;4970596;28;20069;-70
2023/07/24 10:38:46;;;;;;;1.83;0.80;;;;;;;;;;4970074;28;20129;-69
2023/07/24 10:41:12;;;;;;;1.45;0.80;;;;;;;;;;4970446;28;20038;-69
2023/07/24 10:43:44;;;;;;;1.90;0.80;;;;;;;;;;4970888;28;20106;-69
2023/07/24 10:46:10;;;;;;;1.70;0.90;;;;;;;;;;4969403;28;20519;-69
2023/07/24 10:48:36;;;;;;;1.52;0.80;;;;;;;;;;4970844;28;20049;-70
2023/07/24 10:51:07;;;;;;;1.90;0.85;;;;;;;;;;4971056;28;20039;-69
2023/07/24 10:53:35;;;;;;;2.70;0.90;;;;;;;;;;4961305;28;20049;-70
2023/07/24 10:56:00;;;;;;;2.67;0.80;;;;;;;;;;4963633;28;20047;-69
2023/07/24 10:58:27;;;;;;;2.88;0.90;;;;;;;;;;4966994;28;20084;-69
2023/07/24 11:00:52;;;;;;;1.67;0.80;;;;;;;;;;4968757;28;20051;-69
2023/07/24 11:03:17;;;;;;;2.28;1.02;;;;;;;;;;4970712;28;20578;-69
2023/07/24 11:05:45;;;;;;;3.33;1.30;;;;;;;;;;4970518;28;20031;-69
2023/07/24 11:08:15;;;;;;;2.67;1.13;;;;;;;;;;4970294;28;20035;-69
2023/07/24 11:10:47;;;;;;;3.80;1.08;;;;;;;;;;4967223;28;20126;-69
2023/07/24 11:13:14;;;;;;;3.53;0.80;;;;;;;;;;4968893;28;20050;-69
2023/07/24 11:15:40;;;;;;;2.13;1.00;;;;;;;;;;4957978;28;20081;-69
2023/07/24 11:18:08;;;;;;;2.75;0.82;;;;;;;;;;4970383;28;20030;-69
2023/07/24 11:20:37;;;;;;;3.80;1.00;;;;;;;;;;4968889;28;20384;-69
2023/07/24 11:23:02;;;;;;;2.92;1.33;;;;;;;;;;4968922;28;20054;-69
2023/07/24 11:25:28;;;;;;;2.17;0.90;;;;;;;;;;4967417;28;20060;-70
2023/07/24 11:27:54;;;;;;;6.00;1.00;;;;;;;;;;4967127;28;20122;-69
2023/07/24 11:30:21;;;;;;;1.83;1.00;;;;;;;;;;4970843;28;20449;-69
2023/07/24 11:32:46;;;;;;;4.63;1.30;;;;;;;;;;4969767;28;20030;-69
2023/07/24 11:35:12;;;;;;;3.10;1.20;;;;;;;;;;4968085;28;20438;-70
2023/07/24 11:37:37;;;;;;;2.10;0.95;;;;;;;;;;4970179;28;20129;-69
2023/07/24 11:40:09;;;;;;;3.00;1.30;;;;;;;;;;4970201;28;20031;-69
2023/07/24 11:42:39;;;;;;;3.35;1.10;;;;;;;;;;4953205;28;20403;-69
2023/07/24 11:45:12;;;;;;;3.15;1.10;;;;;;;;;;4966697;28;20046;-69
2023/07/24 11:47:56;;;;;;;5.00;1.07;;;;;;;;;;4968796;28;20097;-69
2023/07/24 11:50:22;;;;;;;2.72;0.90;;;;;;;;;;4968389;28;20145;-69
2023/07/24 11:52:49;;;;;;;3.05;0.93;;;;;;;;;;4961214;28;20072;-69
2023/07/24 11:55:16;;;;;;;2.63;1.02;;;;;;;;;;4965147;28;20118;-69
2023/07/24 11:57:42;;;;;;;2.72;1.10;;;;;;;;;;4966974;28;20050;-69
2023/07/24 12:00:21;;;;;;;5.75;1.13;;;;;;;;;;4969291;28;20158;-70
2023/07/24 12:02:47;;;;;;;6.35;1.20;;;;;;;;;;4968826;28;20038;-69
2023/07/24 12:05:12;;;;;;;4.03;1.23;;;;;;;;;;4969633;28;20458;-69
2023/07/24 12:07:38;;;;;;;3.63;1.30;;;;;;;;;;4970452;28;20130;-69
2023/07/24 12:10:05;;;;;;;6.22;1.60;;;;;;;;;;4969920;28;20042;-69
2023/07/24 12:12:38;;;;;;;3.53;1.35;;;;;;;;;;4969178;28;20042;-70
2023/07/24 12:15:03;;;;;;;2.97;1.30;;;;;;;;;;4950139;28;20042;-69
2023/07/24 12:17:29;;;;;;;2.92;1.20;;;;;;;;;;4969169;28;20818;-69
2023/07/24 12:19:54;;;;;;;4.45;1.30;;;;;;;;;;4969012;28;20487;-70
2023/07/24 12:22:19;;;;;;;4.45;1.35;;;;;;;;;;4970067;28;20491;-69
2023/07/24 12:24:45;;;;;;;2.17;1.10;;;;;;;;;;4969263;28;20403;-69
2023/07/24 12:27:10;;;;;;;5.93;1.30;;;;;;;;;;4961948;28;20035;-69
2023/07/24 12:29:36;;;;;;;3.53;1.40;;;;;;;;;;4963653;28;20035;-69
2023/07/24 12:32:01;;;;;;;5.90;1.52;;;;;;;;;;4964242;28;20042;-69
2023/07/24 12:34:27;;;;;;;4.38;1.45;;;;;;;;;;4967275;28;20030;-69
2023/07/24 12:36:53;;;;;;;5.97;1.13;;;;;;;;;;4954675;28;20035;-69
2023/07/24 12:39:19;;;;;;;6.97;1.63;;;;;;;;;;4968287;28;20038;-69
2023/07/24 12:41:44;;;;;;;3.00;1.17;;;;;;;;;;4962794;28;20042;-70
2023/07/24 12:44:09;;;;;;;6.93;1.42;;;;;;;;;;4963309;28;20045;-69
2023/07/24 12:46:35;;;;;;;6.72;1.50;;;;;;;;;;4957930;28;20118;-69
2023/07/24 12:49:00;;;;;;;7.68;1.60;;;;;;;;;;4964634;28;20034;-69
2023/07/24 12:51:25;;;;;;;5.07;1.50;;;;;;;;;;4966039;28;20468;-69
2023/07/24 12:53:51;;;;;;;3.53;1.33;;;;;;;;;;4969220;28;20043;-70
2023/07/24 12:56:16;;;;;;;5.45;1.73;;;;;;;;;;4965603;28;20117;-69
2023/07/24 12:58:41;;;;;;;8.63;1.83;;;;;;;;;;4969253;28;20473;-70
2023/07/24 13:01:07;;;;;;;6.20;1.35;;;;;;;;;;4970316;28;20520;-69
2023/07/24 13:03:32;;;;;;;7.55;1.45;;;;;;;;;;4973028;28;20140;-69
2023/07/24 13:05:57;;;;;;;3.78;1.38;;;;;;;;;;4970947;28;20607;-69
2023/07/24 13:08:23;;;;;;;4.43;1.50;;;;;;;;;;4972556;28;20062;-70
2023/07/24 13:10:49;;;;;;;8.32;1.98;;;;;;;;;;4972628;28;20039;-70
2023/07/24 13:13:14;;;;;;;4.40;1.50;;;;;;;;;;4972166;28;20039;-69
2023/07/24 13:15:39;;;;;;;6.78;1.20;;;;;;;;;;4971535;28;20039;-69
2023/07/24 13:18:04;;;;;;;6.18;1.70;;;;;;;;;;4972501;28;20042;-68
2023/07/24 13:20:30;;;;;;;14.85;2.15;;;;;;;;;;4972497;28;20073;-69
2023/07/24 13:22:55;;;;;;;10.15;2.95;;;;;;;;;;4971682;28;20039;-70
2023/07/24 13:25:20;;;;;;;6.10;1.40;;;;;;;;;;4978734;28;20482;-69
2023/07/24 13:27:46;;;;;;;8.02;1.58;;;;;;;;;;4972349;28;20043;-69
2023/07/24 13:30:11;;;;;;;9.23;1.70;;;;;;;;;;4974033;28;20046;-69
2023/07/24 13:32:37;;;;;;;5.15;1.40;;;;;;;;;;4972538;28;20475;-69
2023/07/24 13:35:02;;;;;;;5.45;1.40;;;;;;;;;;4969696;28;20034;-69
2023/07/24 13:37:27;;;;;;;7.40;1.40;;;;;;;;;;4972970;28;20045;-69
2023/07/24 13:39:53;;;;;;;6.55;1.60;;;;;;;;;;4972009;28;20109;-69
2023/07/24 13:42:18;;;;;;;5.57;1.85;;;;;;;;;;4971881;28;20031;-69
2023/07/24 13:44:43;;;;;;;4.85;1.30;;;;;;;;;;4969713;28;20383;-69
2023/07/24 13:47:09;;;;;;;3.58;1.52;;;;;;;;;;4958454;28;20030;-69
2023/07/24 13:49:34;;;;;;;3.65;1.60;;;;;;;;;;4971097;28;20039;-69
2023/07/24 13:51:59;;;;;;;9.30;1.48;;;;;;;;;;4971105;28;20122;-69
2023/07/24 13:54:25;;;;;;;3.50;1.42;;;;;;;;;;4971160;28;20486;-68
2023/07/24 13:56:50;;;;;;;7.95;1.70;;;;;;;;;;4970986;28;20046;-69
2023/07/24 13:59:15;;;;;;;4.40;1.33;;;;;;;;;;4971935;28;20038;-69
2023/07/24 14:01:41;;;;;;;3.47;1.60;;;;;;;;;;4971245;28;20043;-69
2023/07/24 14:04:07;;;;;;;6.32;1.65;;;;;;;;;;4972458;28;20056;-69
2023/07/24 14:06:32;;;;;;;3.25;1.30;;;;;;;;;;4972318;28;20155;-69
2023/07/24 14:08:58;;;;;;;3.13;1.33;;;;;;;;;;4969467;28;20471;-69
2023/07/24 14:11:24;;;;;;;5.93;1.63;;;;;;;;;;4969661;28;20451;-69
2023/07/24 14:13:50;;;;;;;5.03;1.33;;;;;;;;;;4972157;28;20569;-69
2023/07/24 14:16:15;;;;;;;4.22;1.38;;;;;;;;;;4972037;28;20027;-69
2023/07/24 14:18:41;;;;;;;9.27;1.38;;;;;;;;;;4971964;28;20390;-69
2023/07/24 14:21:06;;;;;;;3.80;1.48;;;;;;;;;;4970237;28;20483;-69
2023/07/24 14:23:31;;;;;;;5.47;1.88;;;;;;;;;;4971632;28;20445;-70
2023/07/24 14:25:57;;;;;;;4.20;1.63;;;;;;;;;;4971059;28;20047;-70
2023/07/24 14:28:22;;;;;;;5.10;1.30;;;;;;;;;;4972131;28;20042;-69
2023/07/24 14:30:47;;;;;;;5.03;1.25;;;;;;;;;;4970184;28;20038;-69
2023/07/24 14:33:12;;;;;;;4.70;1.08;;;;;;;;;;4971337;28;20073;-70